sensor_id;sensor_type;location;lat;lon;timestamp;P1;durP1;ratioP1;P2;durP2;ratioP2
38715;SDS011;24833;49.324;8.694;2022-11-21T00:01:11;2.07;;;1.20;;
38715;SDS011;24833;49.324;8.694;2022-11-21T00:03:51;2.15;;;1.20;;
38715;SDS011;24833;49.324;8.694;2022-11-21T00:06:18;1.70;;;0.80;;
38715;SDS011;24833;49.324;8.694;2022-11-21T00:08:45;1.92;;;0.98;;
38715;SDS011;24833;49.324;8.694;2022-11-21T00:11:13;1.10;;;0.82;;
38715;SDS011;24833;49.324;8.694;2022-11-21T00:13:40;2.20;;;1.00;;
38715;SDS011;24833;49.324;8.694;2022-11-21T00:16:08;2.63;;;0.90;;
38715;SDS011;24833;49.324;8.694;2022-11-21T00:21:15;1.40;;;0.98;;
38715;SDS011;24833;49.324;8.694;2022-11-21T00:23:44;1.88;;;0.75;;
38715;SDS011;24833;49.324;8.694;2022-11-21T00:26:13;2.47;;;1.00;;
38715;SDS011;24833;49.324;8.694;2022-11-21T00:28:41;1.65;;;0.90;;
38715;SDS011;24833;49.324;8.694;2022-11-21T00:31:16;2.25;;;1.00;;
38715;SDS011;24833;49.324;8.694;2022-11-21T00:33:48;2.10;;;0.82;;
38715;SDS011;24833;49.324;8.694;2022-11-21T00:36:15;1.02;;;0.82;;
38715;SDS011;24833;49.324;8.694;2022-11-21T00:38:42;1.75;;;1.10;;
38715;SDS011;24833;49.324;8.694;2022-11-21T00:41:09;1.98;;;0.95;;
38715;SDS011;24833;49.324;8.694;2022-11-21T00:43:36;2.88;;;0.98;;
38715;SDS011;24833;49.324;8.694;2022-11-21T00:46:03;2.75;;;1.00;;
38715;SDS011;24833;49.324;8.694;2022-11-21T00:48:31;1.52;;;0.65;;
38715;SDS011;24833;49.324;8.694;2022-11-21T00:50:58;2.22;;;0.80;;
38715;SDS011;24833;49.324;8.694;2022-11-21T00:53:29;2.08;;;0.70;;
38715;SDS011;24833;49.324;8.694;2022-11-21T00:55:56;2.55;;;0.95;;
38715;SDS011;24833;49.324;8.694;2022-11-21T00:58:24;4.25;;;1.08;;
38715;SDS011;24833;49.324;8.694;2022-11-21T01:00:51;0.95;;;0.60;;
38715;SDS011;24833;49.324;8.694;2022-11-21T01:03:26;1.80;;;0.73;;
38715;SDS011;24833;49.324;8.694;2022-11-21T01:05:58;2.13;;;0.98;;
38715;SDS011;24833;49.324;8.694;2022-11-21T01:08:34;3.17;;;0.95;;
38715;SDS011;24833;49.324;8.694;2022-11-21T01:11:04;2.97;;;1.17;;
38715;SDS011;24833;49.324;8.694;2022-11-21T01:13:33;3.20;;;0.95;;
38715;SDS011;24833;49.324;8.694;2022-11-21T01:18:45;2.90;;;1.15;;
38715;SDS011;24833;49.324;8.694;2022-11-21T01:23:49;1.90;;;1.00;;
38715;SDS011;24833;49.324;8.694;2022-11-21T01:26:18;1.45;;;1.20;;
38715;SDS011;24833;49.324;8.694;2022-11-21T01:28:50;3.47;;;1.35;;
38715;SDS011;24833;49.324;8.694;2022-11-21T01:31:18;3.28;;;0.77;;
38715;SDS011;24833;49.324;8.694;2022-11-21T01:33:48;1.45;;;0.98;;
38715;SDS011;24833;49.324;8.694;2022-11-21T01:36:23;2.63;;;0.88;;
38715;SDS011;24833;49.324;8.694;2022-11-21T01:38:56;1.45;;;0.70;;
38715;SDS011;24833;49.324;8.694;2022-11-21T01:41:28;1.75;;;1.38;;
38715;SDS011;24833;49.324;8.694;2022-11-21T01:44:01;2.42;;;1.05;;
38715;SDS011;24833;49.324;8.694;2022-11-21T01:46:52;2.22;;;1.17;;
38715;SDS011;24833;49.324;8.694;2022-11-21T01:52:05;1.40;;;0.70;;
38715;SDS011;24833;49.324;8.694;2022-11-21T01:57:21;2.33;;;0.77;;
38715;SDS011;24833;49.324;8.694;2022-11-21T02:02:52;1.85;;;0.93;;
38715;SDS011;24833;49.324;8.694;2022-11-21T02:05:25;1.92;;;0.70;;
38715;SDS011;24833;49.324;8.694;2022-11-21T02:07:57;1.58;;;1.02;;
38715;SDS011;24833;49.324;8.694;2022-11-21T02:10:31;2.08;;;0.90;;
38715;SDS011;24833;49.324;8.694;2022-11-21T02:12:59;0.88;;;0.50;;
38715;SDS011;24833;49.324;8.694;2022-11-21T02:15:28;2.67;;;0.85;;
38715;SDS011;24833;49.324;8.694;2022-11-21T02:17:55;1.35;;;0.65;;
38715;SDS011;24833;49.324;8.694;2022-11-21T02:20:26;2.80;;;0.90;;
38715;SDS011;24833;49.324;8.694;2022-11-21T02:25:44;1.50;;;0.90;;
38715;SDS011;24833;49.324;8.694;2022-11-21T02:28:13;2.58;;;0.90;;
38715;SDS011;24833;49.324;8.694;2022-11-21T02:30:42;2.45;;;0.88;;
38715;SDS011;24833;49.324;8.694;2022-11-21T02:33:10;1.25;;;0.73;;
38715;SDS011;24833;49.324;8.694;2022-11-21T02:35:38;1.58;;;0.68;;
38715;SDS011;24833;49.324;8.694;2022-11-21T02:38:20;1.55;;;0.73;;
38715;SDS011;24833;49.324;8.694;2022-11-21T02:41:10;1.45;;;0.80;;
38715;SDS011;24833;49.324;8.694;2022-11-21T02:43:52;1.33;;;0.45;;
38715;SDS011;24833;49.324;8.694;2022-11-21T02:46:53;1.13;;;0.80;;
38715;SDS011;24833;49.324;8.694;2022-11-21T02:49:27;3.47;;;1.00;;
38715;SDS011;24833;49.324;8.694;2022-11-21T02:52:03;2.08;;;0.90;;
38715;SDS011;24833;49.324;8.694;2022-11-21T02:54:30;1.92;;;0.73;;
38715;SDS011;24833;49.324;8.694;2022-11-21T02:56:57;1.02;;;0.57;;
38715;SDS011;24833;49.324;8.694;2022-11-21T02:59:24;3.40;;;0.90;;
38715;SDS011;24833;49.324;8.694;2022-11-21T03:01:51;1.85;;;0.75;;
38715;SDS011;24833;49.324;8.694;2022-11-21T03:04:18;2.05;;;1.13;;
38715;SDS011;24833;49.324;8.694;2022-11-21T03:06:46;1.38;;;0.77;;
38715;SDS011;24833;49.324;8.694;2022-11-21T03:09:13;1.05;;;0.60;;
38715;SDS011;24833;49.324;8.694;2022-11-21T03:11:40;2.50;;;1.00;;
38715;SDS011;24833;49.324;8.694;2022-11-21T03:14:07;1.80;;;1.00;;
38715;SDS011;24833;49.324;8.694;2022-11-21T03:16:34;3.00;;;1.13;;
38715;SDS011;24833;49.324;8.694;2022-11-21T03:19:01;0.75;;;0.55;;
38715;SDS011;24833;49.324;8.694;2022-11-21T03:21:28;1.38;;;0.90;;
38715;SDS011;24833;49.324;8.694;2022-11-21T03:23:55;1.63;;;0.80;;
38715;SDS011;24833;49.324;8.694;2022-11-21T03:26:22;4.50;;;0.98;;
38715;SDS011;24833;49.324;8.694;2022-11-21T03:28:49;1.70;;;0.52;;
38715;SDS011;24833;49.324;8.694;2022-11-21T03:31:16;1.08;;;0.52;;
38715;SDS011;24833;49.324;8.694;2022-11-21T03:33:43;2.17;;;0.77;;
38715;SDS011;24833;49.324;8.694;2022-11-21T03:36:10;1.70;;;0.57;;
38715;SDS011;24833;49.324;8.694;2022-11-21T03:38:37;1.48;;;0.55;;
38715;SDS011;24833;49.324;8.694;2022-11-21T03:41:04;2.08;;;0.63;;
38715;SDS011;24833;49.324;8.694;2022-11-21T03:43:51;1.33;;;0.60;;
38715;SDS011;24833;49.324;8.694;2022-11-21T03:46:18;0.60;;;0.60;;
38715;SDS011;24833;49.324;8.694;2022-11-21T03:48:45;1.13;;;0.60;;
38715;SDS011;24833;49.324;8.694;2022-11-21T03:51:12;2.45;;;0.45;;
38715;SDS011;24833;49.324;8.694;2022-11-21T03:53:39;0.98;;;0.52;;
38715;SDS011;24833;49.324;8.694;2022-11-21T03:56:06;1.63;;;0.43;;
38715;SDS011;24833;49.324;8.694;2022-11-21T03:58:33;0.55;;;0.47;;
38715;SDS011;24833;49.324;8.694;2022-11-21T04:01:00;1.52;;;0.45;;
38715;SDS011;24833;49.324;8.694;2022-11-21T04:03:28;0.93;;;0.45;;
38715;SDS011;24833;49.324;8.694;2022-11-21T04:05:55;1.15;;;0.50;;
38715;SDS011;24833;49.324;8.694;2022-11-21T04:08:23;1.23;;;0.57;;
38715;SDS011;24833;49.324;8.694;2022-11-21T04:10:51;1.38;;;0.50;;
38715;SDS011;24833;49.324;8.694;2022-11-21T04:13:21;1.50;;;0.50;;
38715;SDS011;24833;49.324;8.694;2022-11-21T04:15:48;0.20;;;0.20;;
38715;SDS011;24833;49.324;8.694;2022-11-21T04:18:15;2.40;;;0.47;;
38715;SDS011;24833;49.324;8.694;2022-11-21T04:20:43;0.60;;;0.50;;
38715;SDS011;24833;49.324;8.694;2022-11-21T04:23:10;0.90;;;0.47;;
38715;SDS011;24833;49.324;8.694;2022-11-21T04:25:37;0.60;;;0.60;;
38715;SDS011;24833;49.324;8.694;2022-11-21T04:28:04;2.15;;;0.80;;
38715;SDS011;24833;49.324;8.694;2022-11-21T04:30:32;4.10;;;0.68;;
38715;SDS011;24833;49.324;8.694;2022-11-21T04:33:00;0.85;;;0.35;;
38715;SDS011;24833;49.324;8.694;2022-11-21T04:35:27;0.43;;;0.35;;
38715;SDS011;24833;49.324;8.694;2022-11-21T04:37:54;0.30;;;0.30;;
38715;SDS011;24833;49.324;8.694;2022-11-21T04:40:21;2.95;;;0.57;;
38715;SDS011;24833;49.324;8.694;2022-11-21T04:42:48;0.50;;;0.50;;
38715;SDS011;24833;49.324;8.694;2022-11-21T04:45:15;0.52;;;0.50;;
38715;SDS011;24833;49.324;8.694;2022-11-21T04:47:44;0.68;;;0.50;;
38715;SDS011;24833;49.324;8.694;2022-11-21T04:50:13;1.55;;;0.60;;
38715;SDS011;24833;49.324;8.694;2022-11-21T04:52:49;0.82;;;0.52;;
38715;SDS011;24833;49.324;8.694;2022-11-21T04:55:20;1.77;;;0.50;;
38715;SDS011;24833;49.324;8.694;2022-11-21T04:57:51;2.97;;;0.68;;
38715;SDS011;24833;49.324;8.694;2022-11-21T05:00:18;1.33;;;0.68;;
38715;SDS011;24833;49.324;8.694;2022-11-21T05:02:49;1.98;;;0.65;;
38715;SDS011;24833;49.324;8.694;2022-11-21T05:05:16;0.63;;;0.63;;
38715;SDS011;24833;49.324;8.694;2022-11-21T05:07:43;0.80;;;0.50;;
38715;SDS011;24833;49.324;8.694;2022-11-21T05:10:10;0.50;;;0.50;;
38715;SDS011;24833;49.324;8.694;2022-11-21T05:12:38;0.77;;;0.60;;
38715;SDS011;24833;49.324;8.694;2022-11-21T05:15:23;0.57;;;0.55;;
38715;SDS011;24833;49.324;8.694;2022-11-21T05:17:50;0.68;;;0.50;;
38715;SDS011;24833;49.324;8.694;2022-11-21T05:20:17;1.35;;;0.70;;
38715;SDS011;24833;49.324;8.694;2022-11-21T05:22:44;1.80;;;0.80;;
38715;SDS011;24833;49.324;8.694;2022-11-21T05:25:17;1.02;;;0.60;;
38715;SDS011;24833;49.324;8.694;2022-11-21T05:27:44;1.23;;;0.80;;
38715;SDS011;24833;49.324;8.694;2022-11-21T05:30:11;1.20;;;0.52;;
38715;SDS011;24833;49.324;8.694;2022-11-21T05:32:38;1.10;;;0.60;;
38715;SDS011;24833;49.324;8.694;2022-11-21T05:35:05;0.73;;;0.60;;
38715;SDS011;24833;49.324;8.694;2022-11-21T05:37:33;1.52;;;0.65;;
38715;SDS011;24833;49.324;8.694;2022-11-21T05:40:00;0.70;;;0.60;;
38715;SDS011;24833;49.324;8.694;2022-11-21T05:42:27;1.23;;;0.73;;
38715;SDS011;24833;49.324;8.694;2022-11-21T05:45:13;0.93;;;0.73;;
38715;SDS011;24833;49.324;8.694;2022-11-21T05:47:40;2.83;;;0.77;;
38715;SDS011;24833;49.324;8.694;2022-11-21T05:50:07;1.65;;;0.80;;
38715;SDS011;24833;49.324;8.694;2022-11-21T05:52:34;1.08;;;0.90;;
38715;SDS011;24833;49.324;8.694;2022-11-21T05:55:01;2.95;;;0.82;;
38715;SDS011;24833;49.324;8.694;2022-11-21T05:57:29;1.58;;;0.90;;
38715;SDS011;24833;49.324;8.694;2022-11-21T05:59:56;0.73;;;0.70;;
38715;SDS011;24833;49.324;8.694;2022-11-21T06:02:23;1.60;;;0.80;;
38715;SDS011;24833;49.324;8.694;2022-11-21T06:05:08;3.33;;;1.00;;
38715;SDS011;24833;49.324;8.694;2022-11-21T06:07:35;1.98;;;0.82;;
38715;SDS011;24833;49.324;8.694;2022-11-21T06:10:02;2.95;;;0.70;;
38715;SDS011;24833;49.324;8.694;2022-11-21T06:12:30;1.58;;;0.90;;
38715;SDS011;24833;49.324;8.694;2022-11-21T06:14:57;1.50;;;0.70;;
38715;SDS011;24833;49.324;8.694;2022-11-21T06:17:24;1.70;;;0.95;;
38715;SDS011;24833;49.324;8.694;2022-11-21T06:19:50;4.15;;;1.40;;
38715;SDS011;24833;49.324;8.694;2022-11-21T06:22:18;3.42;;;1.75;;
38715;SDS011;24833;49.324;8.694;2022-11-21T06:24:45;1.98;;;0.88;;
38715;SDS011;24833;49.324;8.694;2022-11-21T06:27:12;2.13;;;0.90;;
38715;SDS011;24833;49.324;8.694;2022-11-21T06:29:38;4.45;;;1.15;;
38715;SDS011;24833;49.324;8.694;2022-11-21T06:32:05;1.27;;;0.93;;
38715;SDS011;24833;49.324;8.694;2022-11-21T06:34:32;1.98;;;1.20;;
38715;SDS011;24833;49.324;8.694;2022-11-21T06:36:59;2.85;;;1.65;;
38715;SDS011;24833;49.324;8.694;2022-11-21T06:39:26;5.18;;;1.40;;
38715;SDS011;24833;49.324;8.694;2022-11-21T06:41:53;2.22;;;1.23;;
38715;SDS011;24833;49.324;8.694;2022-11-21T06:44:20;2.38;;;1.00;;
38715;SDS011;24833;49.324;8.694;2022-11-21T06:46:47;1.98;;;0.93;;
38715;SDS011;24833;49.324;8.694;2022-11-21T06:49:17;1.50;;;1.00;;
38715;SDS011;24833;49.324;8.694;2022-11-21T06:51:44;2.20;;;1.20;;
38715;SDS011;24833;49.324;8.694;2022-11-21T06:54:11;2.45;;;1.10;;
38715;SDS011;24833;49.324;8.694;2022-11-21T06:56:42;1.25;;;0.98;;
38715;SDS011;24833;49.324;8.694;2022-11-21T06:59:09;5.05;;;1.48;;
38715;SDS011;24833;49.324;8.694;2022-11-21T07:01:36;3.85;;;1.40;;
38715;SDS011;24833;49.324;8.694;2022-11-21T07:04:03;3.13;;;1.38;;
38715;SDS011;24833;49.324;8.694;2022-11-21T07:06:30;2.53;;;1.10;;
38715;SDS011;24833;49.324;8.694;2022-11-21T07:09:00;2.30;;;1.33;;
38715;SDS011;24833;49.324;8.694;2022-11-21T07:11:46;3.33;;;1.20;;
38715;SDS011;24833;49.324;8.694;2022-11-21T07:14:13;5.18;;;1.25;;
38715;SDS011;24833;49.324;8.694;2022-11-21T07:16:40;2.08;;;1.35;;
38715;SDS011;24833;49.324;8.694;2022-11-21T07:19:07;2.72;;;1.23;;
38715;SDS011;24833;49.324;8.694;2022-11-21T07:21:34;4.18;;;1.52;;
38715;SDS011;24833;49.324;8.694;2022-11-21T07:24:01;2.63;;;1.30;;
38715;SDS011;24833;49.324;8.694;2022-11-21T07:26:28;3.38;;;1.58;;
38715;SDS011;24833;49.324;8.694;2022-11-21T07:28:57;3.70;;;1.73;;
38715;SDS011;24833;49.324;8.694;2022-11-21T07:31:23;3.03;;;1.70;;
38715;SDS011;24833;49.324;8.694;2022-11-21T07:33:50;4.65;;;1.38;;
38715;SDS011;24833;49.324;8.694;2022-11-21T07:36:17;2.58;;;1.25;;
38715;SDS011;24833;49.324;8.694;2022-11-21T07:38:44;6.15;;;1.73;;
38715;SDS011;24833;49.324;8.694;2022-11-21T07:41:11;3.05;;;1.20;;
38715;SDS011;24833;49.324;8.694;2022-11-21T07:43:39;3.45;;;1.75;;
38715;SDS011;24833;49.324;8.694;2022-11-21T07:46:06;4.05;;;1.60;;
38715;SDS011;24833;49.324;8.694;2022-11-21T07:48:33;4.05;;;1.67;;
38715;SDS011;24833;49.324;8.694;2022-11-21T07:51:01;3.88;;;1.90;;
38715;SDS011;24833;49.324;8.694;2022-11-21T07:53:30;2.95;;;1.42;;
38715;SDS011;24833;49.324;8.694;2022-11-21T07:55:57;1.85;;;1.25;;
38715;SDS011;24833;49.324;8.694;2022-11-21T07:58:25;3.33;;;1.10;;
38715;SDS011;24833;49.324;8.694;2022-11-21T08:00:52;2.67;;;1.30;;
38715;SDS011;24833;49.324;8.694;2022-11-21T08:03:19;5.25;;;1.48;;
38715;SDS011;24833;49.324;8.694;2022-11-21T08:05:47;1.05;;;0.85;;
38715;SDS011;24833;49.324;8.694;2022-11-21T08:08:14;3.78;;;1.63;;
38715;SDS011;24833;49.324;8.694;2022-11-21T08:10:42;3.63;;;1.50;;
38715;SDS011;24833;49.324;8.694;2022-11-21T08:13:11;4.15;;;1.58;;
38715;SDS011;24833;49.324;8.694;2022-11-21T08:15:39;4.07;;;1.55;;
38715;SDS011;24833;49.324;8.694;2022-11-21T08:18:07;3.25;;;1.30;;
38715;SDS011;24833;49.324;8.694;2022-11-21T08:20:44;2.63;;;1.52;;
38715;SDS011;24833;49.324;8.694;2022-11-21T08:23:11;3.80;;;1.52;;
38715;SDS011;24833;49.324;8.694;2022-11-21T08:25:39;5.60;;;1.65;;
38715;SDS011;24833;49.324;8.694;2022-11-21T08:28:08;2.65;;;1.25;;
38715;SDS011;24833;49.324;8.694;2022-11-21T08:30:36;1.85;;;1.20;;
38715;SDS011;24833;49.324;8.694;2022-11-21T08:33:05;3.22;;;1.20;;
38715;SDS011;24833;49.324;8.694;2022-11-21T08:35:34;4.65;;;1.25;;
38715;SDS011;24833;49.324;8.694;2022-11-21T08:38:03;4.00;;;1.17;;
38715;SDS011;24833;49.324;8.694;2022-11-21T08:40:31;3.97;;;2.10;;
38715;SDS011;24833;49.324;8.694;2022-11-21T08:43:03;5.20;;;1.73;;
38715;SDS011;24833;49.324;8.694;2022-11-21T08:45:33;4.25;;;1.10;;
38715;SDS011;24833;49.324;8.694;2022-11-21T08:48:01;3.50;;;1.33;;
38715;SDS011;24833;49.324;8.694;2022-11-21T08:50:29;5.45;;;1.63;;
38715;SDS011;24833;49.324;8.694;2022-11-21T08:53:00;2.25;;;1.25;;
38715;SDS011;24833;49.324;8.694;2022-11-21T08:57:55;3.63;;;1.33;;
38715;SDS011;24833;49.324;8.694;2022-11-21T09:00:23;3.47;;;1.50;;
38715;SDS011;24833;49.324;8.694;2022-11-21T09:02:50;4.00;;;1.13;;
38715;SDS011;24833;49.324;8.694;2022-11-21T09:05:17;2.83;;;1.27;;
38715;SDS011;24833;49.324;8.694;2022-11-21T09:07:44;4.43;;;1.45;;
38715;SDS011;24833;49.324;8.694;2022-11-21T09:10:13;5.78;;;1.10;;
38715;SDS011;24833;49.324;8.694;2022-11-21T09:12:40;3.35;;;1.45;;
38715;SDS011;24833;49.324;8.694;2022-11-21T09:15:08;2.80;;;1.15;;
38715;SDS011;24833;49.324;8.694;2022-11-21T09:17:54;3.42;;;1.05;;
38715;SDS011;24833;49.324;8.694;2022-11-21T09:20:32;3.20;;;1.42;;
38715;SDS011;24833;49.324;8.694;2022-11-21T09:23:09;2.83;;;1.48;;
38715;SDS011;24833;49.324;8.694;2022-11-21T09:25:38;5.75;;;1.33;;
38715;SDS011;24833;49.324;8.694;2022-11-21T09:28:07;3.53;;;1.20;;
38715;SDS011;24833;49.324;8.694;2022-11-21T09:30:37;1.90;;;0.98;;
38715;SDS011;24833;49.324;8.694;2022-11-21T09:33:06;2.60;;;1.27;;
38715;SDS011;24833;49.324;8.694;2022-11-21T09:35:38;5.93;;;1.05;;
38715;SDS011;24833;49.324;8.694;2022-11-21T09:38:05;2.45;;;0.82;;
38715;SDS011;24833;49.324;8.694;2022-11-21T09:40:33;5.38;;;1.38;;
38715;SDS011;24833;49.324;8.694;2022-11-21T09:43:17;3.35;;;0.65;;
38715;SDS011;24833;49.324;8.694;2022-11-21T09:46:11;2.90;;;1.08;;
38715;SDS011;24833;49.324;8.694;2022-11-21T09:48:51;2.22;;;0.98;;
38715;SDS011;24833;49.324;8.694;2022-11-21T09:51:26;1.58;;;0.70;;
38715;SDS011;24833;49.324;8.694;2022-11-21T09:54:04;3.80;;;1.00;;
38715;SDS011;24833;49.324;8.694;2022-11-21T09:56:59;5.10;;;1.08;;
38715;SDS011;24833;49.324;8.694;2022-11-21T10:02:08;4.93;;;1.27;;
38715;SDS011;24833;49.324;8.694;2022-11-21T10:07:16;2.70;;;1.40;;
38715;SDS011;24833;49.324;8.694;2022-11-21T10:10:16;2.22;;;1.15;;
38715;SDS011;24833;49.324;8.694;2022-11-21T10:13:14;4.05;;;1.65;;
38715;SDS011;24833;49.324;8.694;2022-11-21T10:16:13;3.97;;;1.20;;
38715;SDS011;24833;49.324;8.694;2022-11-21T10:19:13;3.55;;;1.02;;
38715;SDS011;24833;49.324;8.694;2022-11-21T10:25:02;1.95;;;0.70;;
38715;SDS011;24833;49.324;8.694;2022-11-21T10:27:46;2.95;;;0.90;;
38715;SDS011;24833;49.324;8.694;2022-11-21T10:30:23;3.22;;;2.00;;
38715;SDS011;24833;49.324;8.694;2022-11-21T10:32:57;2.92;;;0.93;;
38715;SDS011;24833;49.324;8.694;2022-11-21T10:38:26;4.47;;;1.42;;
38715;SDS011;24833;49.324;8.694;2022-11-21T10:40:59;3.35;;;1.05;;
38715;SDS011;24833;49.324;8.694;2022-11-21T10:46:55;5.93;;;1.70;;
38715;SDS011;24833;49.324;8.694;2022-11-21T10:49:24;3.15;;;1.40;;
38715;SDS011;24833;49.324;8.694;2022-11-21T10:52:06;4.93;;;1.85;;
38715;SDS011;24833;49.324;8.694;2022-11-21T10:57:37;1.92;;;1.30;;
38715;SDS011;24833;49.324;8.694;2022-11-21T11:02:57;2.72;;;1.45;;
38715;SDS011;24833;49.324;8.694;2022-11-21T11:05:36;1.90;;;1.30;;
38715;SDS011;24833;49.324;8.694;2022-11-21T11:08:07;2.10;;;0.93;;
38715;SDS011;24833;49.324;8.694;2022-11-21T11:10:41;2.58;;;1.33;;
38715;SDS011;24833;49.324;8.694;2022-11-21T11:13:27;2.08;;;0.82;;
38715;SDS011;24833;49.324;8.694;2022-11-21T11:16:19;3.03;;;1.15;;
38715;SDS011;24833;49.324;8.694;2022-11-21T11:26:49;3.47;;;1.30;;
38715;SDS011;24833;49.324;8.694;2022-11-21T11:29:19;4.75;;;1.20;;
38715;SDS011;24833;49.324;8.694;2022-11-21T11:34:25;2.28;;;1.00;;
38715;SDS011;24833;49.324;8.694;2022-11-21T11:37:10;3.70;;;1.65;;
38715;SDS011;24833;49.324;8.694;2022-11-21T11:43:05;5.25;;;1.55;;
38715;SDS011;24833;49.324;8.694;2022-11-21T11:46:29;4.05;;;1.90;;
38715;SDS011;24833;49.324;8.694;2022-11-21T11:49:43;4.15;;;1.67;;
38715;SDS011;24833;49.324;8.694;2022-11-21T11:55:18;4.45;;;1.40;;
38715;SDS011;24833;49.324;8.694;2022-11-21T11:58:12;5.90;;;1.25;;
38715;SDS011;24833;49.324;8.694;2022-11-21T12:01:06;5.10;;;1.52;;
38715;SDS011;24833;49.324;8.694;2022-11-21T12:06:47;2.97;;;0.95;;
38715;SDS011;24833;49.324;8.694;2022-11-21T12:09:48;3.08;;;1.25;;
38715;SDS011;24833;49.324;8.694;2022-11-21T12:12:34;2.97;;;1.30;;
38715;SDS011;24833;49.324;8.694;2022-11-21T12:23:50;3.95;;;1.13;;
38715;SDS011;24833;49.324;8.694;2022-11-21T12:26:25;2.45;;;1.13;;
38715;SDS011;24833;49.324;8.694;2022-11-21T12:32:45;2.43;;;1.03;;
38715;SDS011;24833;49.324;8.694;2022-11-21T12:41:58;3.50;;;1.35;;
38715;SDS011;24833;49.324;8.694;2022-11-21T12:51:29;2.95;;;1.23;;
38715;SDS011;24833;49.324;8.694;2022-11-21T12:57:19;5.68;;;1.48;;
38715;SDS011;24833;49.324;8.694;2022-11-21T13:00:13;3.55;;;0.95;;
38715;SDS011;24833;49.324;8.694;2022-11-21T13:03:08;2.88;;;1.23;;
38715;SDS011;24833;49.324;8.694;2022-11-21T13:06:18;3.42;;;1.20;;
38715;SDS011;24833;49.324;8.694;2022-11-21T13:08:57;5.60;;;1.30;;
38715;SDS011;24833;49.324;8.694;2022-11-21T13:17:02;2.88;;;1.60;;
38715;SDS011;24833;49.324;8.694;2022-11-21T13:19:54;1.88;;;0.98;;
38715;SDS011;24833;49.324;8.694;2022-11-21T13:25:03;5.38;;;1.17;;
38715;SDS011;24833;49.324;8.694;2022-11-21T13:27:38;4.72;;;1.10;;
38715;SDS011;24833;49.324;8.694;2022-11-21T13:32:58;4.15;;;1.50;;
38715;SDS011;24833;49.324;8.694;2022-11-21T13:37:58;4.13;;;1.00;;
38715;SDS011;24833;49.324;8.694;2022-11-21T13:40:38;2.40;;;1.17;;
38715;SDS011;24833;49.324;8.694;2022-11-21T13:43:32;5.75;;;2.00;;
38715;SDS011;24833;49.324;8.694;2022-11-21T13:46:00;5.70;;;1.35;;
38715;SDS011;24833;49.324;8.694;2022-11-21T14:09:05;4.82;;;1.42;;
38715;SDS011;24833;49.324;8.694;2022-11-21T14:14:25;5.70;;;1.40;;
38715;SDS011;24833;49.324;8.694;2022-11-21T14:20:06;3.60;;;1.80;;
38715;SDS011;24833;49.324;8.694;2022-11-21T14:25:42;2.75;;;1.13;;
38715;SDS011;24833;49.324;8.694;2022-11-21T14:28:25;3.13;;;1.20;;
38715;SDS011;24833;49.324;8.694;2022-11-21T14:31:01;3.38;;;1.83;;
38715;SDS011;24833;49.324;8.694;2022-11-21T14:36:06;3.28;;;1.38;;
38715;SDS011;24833;49.324;8.694;2022-11-21T14:38:51;3.58;;;1.48;;
38715;SDS011;24833;49.324;8.694;2022-11-21T14:41:50;4.97;;;1.70;;
38715;SDS011;24833;49.324;8.694;2022-11-21T14:46:49;3.70;;;1.27;;
38715;SDS011;24833;49.324;8.694;2022-11-21T14:49:28;4.32;;;1.45;;
38715;SDS011;24833;49.324;8.694;2022-11-21T14:52:29;4.53;;;1.30;;
38715;SDS011;24833;49.324;8.694;2022-11-21T14:54:55;1.33;;;0.70;;
38715;SDS011;24833;49.324;8.694;2022-11-21T14:57:44;4.85;;;0.95;;
38715;SDS011;24833;49.324;8.694;2022-11-21T15:00:14;3.05;;;1.10;;
38715;SDS011;24833;49.324;8.694;2022-11-21T15:03:20;3.30;;;1.10;;
38715;SDS011;24833;49.324;8.694;2022-11-21T15:05:56;2.67;;;1.00;;
38715;SDS011;24833;49.324;8.694;2022-11-21T15:08:35;2.65;;;1.20;;
38715;SDS011;24833;49.324;8.694;2022-11-21T15:11:28;5.13;;;1.38;;
38715;SDS011;24833;49.324;8.694;2022-11-21T15:14:01;6.78;;;1.30;;
38715;SDS011;24833;49.324;8.694;2022-11-21T15:16:51;4.78;;;1.02;;
38715;SDS011;24833;49.324;8.694;2022-11-21T15:19:25;6.53;;;0.80;;
38715;SDS011;24833;49.324;8.694;2022-11-21T15:21:58;5.90;;;1.73;;
38715;SDS011;24833;49.324;8.694;2022-11-21T15:24:38;4.15;;;1.23;;
38715;SDS011;24833;49.324;8.694;2022-11-21T15:35:40;3.42;;;1.10;;
38715;SDS011;24833;49.324;8.694;2022-11-21T15:38:16;1.95;;;1.20;;
38715;SDS011;24833;49.324;8.694;2022-11-21T15:41:02;4.53;;;1.40;;
38715;SDS011;24833;49.324;8.694;2022-11-21T15:46:20;5.07;;;1.35;;
38715;SDS011;24833;49.324;8.694;2022-11-21T15:48:52;4.32;;;1.65;;
38715;SDS011;24833;49.324;8.694;2022-11-21T15:51:22;5.55;;;1.45;;
38715;SDS011;24833;49.324;8.694;2022-11-21T15:54:22;5.20;;;2.33;;
38715;SDS011;24833;49.324;8.694;2022-11-21T15:56:49;4.90;;;1.77;;
38715;SDS011;24833;49.324;8.694;2022-11-21T15:59:16;6.47;;;1.83;;
38715;SDS011;24833;49.324;8.694;2022-11-21T16:01:46;6.20;;;1.65;;
38715;SDS011;24833;49.324;8.694;2022-11-21T16:04:14;4.82;;;1.73;;
38715;SDS011;24833;49.324;8.694;2022-11-21T16:06:47;9.43;;;1.98;;
38715;SDS011;24833;49.324;8.694;2022-11-21T16:09:17;5.28;;;2.13;;
38715;SDS011;24833;49.324;8.694;2022-11-21T16:11:44;5.43;;;1.70;;
38715;SDS011;24833;49.324;8.694;2022-11-21T16:14:13;3.17;;;1.50;;
38715;SDS011;24833;49.324;8.694;2022-11-21T16:16:43;5.63;;;1.50;;
38715;SDS011;24833;49.324;8.694;2022-11-21T16:19:11;4.50;;;2.17;;
38715;SDS011;24833;49.324;8.694;2022-11-21T16:21:40;4.40;;;1.88;;
38715;SDS011;24833;49.324;8.694;2022-11-21T16:24:07;5.50;;;1.50;;
38715;SDS011;24833;49.324;8.694;2022-11-21T16:26:34;3.92;;;1.90;;
38715;SDS011;24833;49.324;8.694;2022-11-21T16:29:01;5.47;;;1.90;;
38715;SDS011;24833;49.324;8.694;2022-11-21T16:31:32;2.90;;;1.63;;
38715;SDS011;24833;49.324;8.694;2022-11-21T16:33:59;5.53;;;1.67;;
38715;SDS011;24833;49.324;8.694;2022-11-21T16:36:27;3.00;;;1.50;;
38715;SDS011;24833;49.324;8.694;2022-11-21T16:38:56;5.38;;;1.58;;
38715;SDS011;24833;49.324;8.694;2022-11-21T16:41:33;6.30;;;1.85;;
38715;SDS011;24833;49.324;8.694;2022-11-21T16:44:00;5.82;;;1.85;;
38715;SDS011;24833;49.324;8.694;2022-11-21T16:46:27;6.10;;;1.67;;
38715;SDS011;24833;49.324;8.694;2022-11-21T16:48:58;4.05;;;2.00;;
38715;SDS011;24833;49.324;8.694;2022-11-21T16:51:27;10.38;;;2.38;;
38715;SDS011;24833;49.324;8.694;2022-11-21T16:53:56;3.75;;;2.53;;
38715;SDS011;24833;49.324;8.694;2022-11-21T16:56:28;9.63;;;2.72;;
38715;SDS011;24833;49.324;8.694;2022-11-21T16:58:55;8.68;;;3.85;;
38715;SDS011;24833;49.324;8.694;2022-11-21T17:01:22;9.95;;;6.90;;
38715;SDS011;24833;49.324;8.694;2022-11-21T17:03:51;9.90;;;7.45;;
38715;SDS011;24833;49.324;8.694;2022-11-21T17:06:19;4.63;;;3.22;;
38715;SDS011;24833;49.324;8.694;2022-11-21T17:11:17;4.38;;;1.95;;
38715;SDS011;24833;49.324;8.694;2022-11-21T17:13:54;5.45;;;1.73;;
38715;SDS011;24833;49.324;8.694;2022-11-21T17:16:25;3.20;;;1.50;;
38715;SDS011;24833;49.324;8.694;2022-11-21T17:18:54;4.28;;;1.75;;
38715;SDS011;24833;49.324;8.694;2022-11-21T17:21:23;4.45;;;1.98;;
38715;SDS011;24833;49.324;8.694;2022-11-21T17:23:52;4.15;;;1.92;;
38715;SDS011;24833;49.324;8.694;2022-11-21T17:26:21;6.22;;;2.20;;
38715;SDS011;24833;49.324;8.694;2022-11-21T17:28:57;4.70;;;1.95;;
38715;SDS011;24833;49.324;8.694;2022-11-21T17:31:26;2.58;;;1.85;;
38715;SDS011;24833;49.324;8.694;2022-11-21T17:33:59;5.70;;;2.30;;
38715;SDS011;24833;49.324;8.694;2022-11-21T17:36:27;4.03;;;2.22;;
38715;SDS011;24833;49.324;8.694;2022-11-21T17:38:55;7.65;;;2.10;;
38715;SDS011;24833;49.324;8.694;2022-11-21T17:41:23;4.70;;;1.65;;
38715;SDS011;24833;49.324;8.694;2022-11-21T17:43:54;7.38;;;2.10;;
38715;SDS011;24833;49.324;8.694;2022-11-21T17:46:23;3.13;;;1.58;;
38715;SDS011;24833;49.324;8.694;2022-11-21T17:48:51;3.25;;;1.83;;
38715;SDS011;24833;49.324;8.694;2022-11-21T17:51:24;5.35;;;2.25;;